createdAt,value
2017-12-16T00:00:40.136Z,94030.63
2017-12-16T00:03:07.598Z,94036.68
2017-12-16T00:05:35.072Z,94037.96
2017-12-16T00:08:02.529Z,94035.89
2017-12-16T00:10:30.012Z,94042.28
2017-12-16T00:12:57.468Z,94041.88
2017-12-16T00:15:24.951Z,94046.47
2017-12-16T00:17:52.412Z,94041.80
2017-12-16T00:20:19.884Z,94040.23
2017-12-16T00:22:47.341Z,94040.11
2017-12-16T00:25:14.830Z,94037.11
2017-12-16T00:27:42.293Z,94033.67
2017-12-16T00:30:09.745Z,94036.48
2017-12-16T00:32:37.216Z,94041.34
2017-12-16T00:35:04.673Z,94031.37
2017-12-16T00:37:32.148Z,94027.36
2017-12-16T00:39:59.605Z,94027.53
2017-12-16T00:42:27.086Z,94029.02
2017-12-16T00:44:54.548Z,94022.92
2017-12-16T00:47:22.021Z,94026.39
2017-12-16T00:49:49.481Z,94031.69
2017-12-16T00:52:16.961Z,94029.49
2017-12-16T00:54:44.420Z,94036.43
2017-12-16T00:57:11.897Z,94034.23
2017-12-16T00:59:39.354Z,94033.01
2017-12-16T01:02:06.860Z,94034.45
2017-12-16T01:04:34.321Z,94041.05
2017-12-16T01:07:01.799Z,94037.75
2017-12-16T01:09:29.266Z,94041.42
2017-12-16T01:11:56.743Z,94039.44
2017-12-16T01:14:24.205Z,94046.94
2017-12-16T01:16:51.682Z,94048.48
2017-12-16T01:19:19.140Z,94039.70
2017-12-16T01:21:46.593Z,94046.46
2017-12-16T01:24:14.084Z,94045.75
2017-12-16T01:26:41.608Z,94050.10
2017-12-16T01:29:09.077Z,94047.03
2017-12-16T01:31:36.532Z,94054.14
2017-12-16T01:34:16.009Z,94063.34
2017-12-16T01:36:55.385Z,94062.81
2017-12-16T01:39:22.860Z,94062.55
2017-12-16T01:41:50.322Z,94061.53
2017-12-16T01:44:17.787Z,94060.05
2017-12-16T01:46:45.261Z,94058.03
2017-12-16T01:49:12.720Z,94058.57
2017-12-16T01:51:40.178Z,94057.55
2017-12-16T01:54:07.648Z,94057.77
2017-12-16T01:56:35.096Z,94063.48
2017-12-16T01:59:02.557Z,94067.52
2017-12-16T02:01:30.029Z,94069.63
2017-12-16T02:03:57.484Z,94063.52
2017-12-16T02:06:24.941Z,94070.87
2017-12-16T02:08:52.417Z,94079.89
2017-12-16T02:11:19.878Z,94072.75
2017-12-16T02:13:47.336Z,94078.52
2017-12-16T02:16:14.808Z,94078.52
2017-12-16T02:18:42.274Z,94076.96
2017-12-16T02:21:09.737Z,94072.67
2017-12-16T02:23:37.213Z,94079.49
2017-12-16T02:26:04.673Z,94077.76
2017-12-16T02:28:32.133Z,94076.98
2017-12-16T02:30:59.617Z,94075.62
2017-12-16T02:33:27.078Z,94084.44
2017-12-16T02:35:54.534Z,94079.37
2017-12-16T02:38:22.010Z,94080.55
2017-12-16T02:40:49.460Z,94072.44
2017-12-16T02:43:17.005Z,94079.25
2017-12-16T02:45:44.481Z,94076.14
2017-12-16T02:48:11.940Z,94082.81
2017-12-16T02:50:39.426Z,94081.25
2017-12-16T02:53:06.881Z,94088.70
2017-12-16T02:55:34.353Z,94085.47
2017-12-16T02:58:01.817Z,94091.98
2017-12-16T03:00:29.276Z,94097.38
2017-12-16T03:02:56.756Z,94097.33
2017-12-16T03:05:24.212Z,94095.83
2017-12-16T03:07:51.664Z,94104.27
2017-12-16T03:10:19.141Z,94108.87
2017-12-16T03:12:46.603Z,94113.33
2017-12-16T03:15:14.072Z,94121.53
2017-12-16T03:17:41.558Z,94121.27
2017-12-16T03:20:09.012Z,94123.06
2017-12-16T03:22:36.469Z,94127.66
2017-12-16T03:25:03.937Z,94139.40
2017-12-16T03:27:31.412Z,94134.88
2017-12-16T03:29:59.325Z,94140.20
2017-12-16T03:32:26.801Z,94143.31
2017-12-16T03:34:54.252Z,94145.17
2017-12-16T03:37:21.847Z,94148.92
2017-12-16T03:39:49.320Z,94156.86
2017-12-16T03:42:16.777Z,94156.93
2017-12-16T03:44:44.269Z,94164.94
2017-12-16T03:47:11.720Z,94167.65
2017-12-16T03:49:39.193Z,94169.75
2017-12-16T03:52:06.690Z,94174.00
2017-12-16T03:54:34.150Z,94167.77
2017-12-16T03:57:01.623Z,94168.05
2017-12-16T03:59:29.080Z,94171.66
2017-12-16T04:01:56.556Z,94168.59
2017-12-16T04:04:24.079Z,94170.67
2017-12-16T04:06:51.553Z,94172.22
2017-12-16T04:09:19.010Z,94174.02
2017-12-16T04:11:46.472Z,94176.23
2017-12-16T04:14:13.940Z,94174.92
2017-12-16T04:16:41.396Z,94177.78
2017-12-16T04:19:08.865Z,94184.77
2017-12-16T04:21:36.316Z,94181.03
2017-12-16T04:24:03.785Z,94185.98
2017-12-16T04:26:31.241Z,94188.68
2017-12-16T04:28:58.692Z,94190.15
2017-12-16T04:31:26.160Z,94188.50
2017-12-16T04:33:53.617Z,94191.77
2017-12-16T04:36:21.089Z,94194.45
2017-12-16T04:38:48.550Z,94196.73
2017-12-16T04:41:16.042Z,94198.83
2017-12-16T04:43:43.497Z,94198.57
2017-12-16T04:46:10.953Z,94198.49
2017-12-16T04:48:38.425Z,94200.45
2017-12-16T04:51:05.888Z,94197.57
2017-12-16T04:53:33.365Z,94201.12
2017-12-16T04:56:00.825Z,94205.71
2017-12-16T04:58:28.281Z,94203.48
2017-12-16T05:00:55.758Z,94204.41
2017-12-16T05:03:23.213Z,94214.23
2017-12-16T05:05:50.673Z,94214.55
2017-12-16T05:08:18.148Z,94216.11
2017-12-16T05:10:45.615Z,94218.58
2017-12-16T05:13:13.072Z,94214.38
2017-12-16T05:15:40.544Z,94217.91
2017-12-16T05:18:08.001Z,94214.98
2017-12-16T05:20:35.465Z,94221.94
2017-12-16T05:23:02.932Z,94223.06
2017-12-16T05:25:30.393Z,94222.66
2017-12-16T05:27:57.856Z,94231.19
2017-12-16T05:30:25.325Z,94233.42
2017-12-16T05:32:52.776Z,94242.55
2017-12-16T05:35:20.249Z,94247.91
2017-12-16T05:37:47.713Z,94252.51
2017-12-16T05:40:15.169Z,94257.71
2017-12-16T05:42:42.674Z,94263.38
2017-12-16T05:45:10.140Z,94274.88
2017-12-16T05:47:37.625Z,94275.73
2017-12-16T05:50:05.077Z,94275.73
2017-12-16T05:52:32.557Z,94279.94
2017-12-16T05:55:00.021Z,94289.41
2017-12-16T05:57:27.488Z,94290.88
2017-12-16T05:59:54.956Z,94288.22
2017-12-16T06:02:22.421Z,94295.98
2017-12-16T06:04:49.905Z,94296.25
2017-12-16T06:07:17.372Z,94301.85
2017-12-16T06:09:44.845Z,94303.50
2017-12-16T06:12:12.300Z,94304.55
2017-12-16T06:14:39.758Z,94306.78
2017-12-16T06:17:07.228Z,94309.74
2017-12-16T06:19:34.681Z,94314.87
2017-12-16T06:22:02.129Z,94320.35
2017-12-16T06:24:29.597Z,94312.25
2017-12-16T06:26:57.112Z,94317.11
2017-12-16T06:29:24.577Z,94321.84
2017-12-16T06:31:52.057Z,94323.22
2017-12-16T06:34:19.541Z,94323.88
2017-12-16T06:36:47.041Z,94328.59
2017-12-16T06:39:14.507Z,94334.51
2017-12-16T06:41:41.980Z,94328.14
2017-12-16T06:44:09.457Z,94337.00
2017-12-16T06:46:36.916Z,94334.11
2017-12-16T06:49:04.400Z,94344.50
2017-12-16T06:51:31.856Z,94344.17
2017-12-16T06:53:59.329Z,94344.50
2017-12-16T06:56:26.816Z,94350.03
2017-12-16T06:58:54.280Z,94352.17
2017-12-16T07:01:21.763Z,94360.75
2017-12-16T07:03:49.253Z,94361.05
2017-12-16T07:06:16.730Z,94363.84
2017-12-16T07:08:44.213Z,94359.24
2017-12-16T07:11:11.676Z,94365.11
2017-12-16T07:13:39.153Z,94365.89
2017-12-16T07:16:06.633Z,94370.82
2017-12-16T07:18:34.107Z,94375.47
2017-12-16T07:21:01.573Z,94367.98
2017-12-16T07:23:29.056Z,94375.77
2017-12-16T07:25:56.517Z,94382.66
2017-12-16T07:28:23.981Z,94387.04
2017-12-16T07:30:51.461Z,94385.61
2017-12-16T07:33:18.921Z,94390.16
2017-12-16T07:35:46.379Z,94396.58
2017-12-16T07:38:13.853Z,94397.05
2017-12-16T07:40:41.309Z,94397.97
2017-12-16T07:43:08.785Z,94408.72
2017-12-16T07:45:36.244Z,94408.11
2017-12-16T07:48:03.705Z,94417.08
2017-12-16T07:50:31.270Z,94409.91
2017-12-16T07:52:58.744Z,94416.61
2017-12-16T07:55:26.208Z,94416.08
2017-12-16T07:57:53.683Z,94416.33
2017-12-16T08:00:21.137Z,94427.98
2017-12-16T08:02:48.609Z,94435.17
2017-12-16T08:05:16.066Z,94437.52
2017-12-16T08:07:43.948Z,94446.45
2017-12-16T08:10:11.401Z,94446.81
2017-12-16T08:12:38.870Z,94443.30
2017-12-16T08:15:06.729Z,94446.58
2017-12-16T08:17:34.188Z,94459.31
2017-12-16T08:20:01.651Z,94462.45
2017-12-16T08:22:29.137Z,94464.38
2017-12-16T08:24:56.593Z,94468.08
2017-12-16T08:27:24.049Z,94468.91
2017-12-16T08:29:51.525Z,94477.55
2017-12-16T08:32:18.988Z,94484.08
2017-12-16T08:34:46.534Z,94485.01
2017-12-16T08:37:14.037Z,94487.11
2017-12-16T08:39:41.489Z,94491.45
2017-12-16T08:42:08.962Z,94497.83
2017-12-16T08:44:36.421Z,94503.38
2017-12-16T08:47:03.872Z,94502.92
2017-12-16T08:49:31.513Z,94506.89
2017-12-16T08:51:58.970Z,94505.66
2017-12-16T08:54:26.468Z,94513.60
2017-12-16T08:56:53.925Z,94519.82
2017-12-16T08:59:21.380Z,94523.69
2017-12-16T09:01:48.862Z,94527.98
2017-12-16T09:04:16.340Z,94532.72
2017-12-16T09:06:43.793Z,94534.88
2017-12-16T09:09:11.252Z,94539.62
2017-12-16T09:11:38.724Z,94551.48
2017-12-16T09:14:06.193Z,94556.39
2017-12-16T09:16:33.669Z,94557.94
2017-12-16T09:19:01.128Z,94556.36
2017-12-16T09:21:28.593Z,94567.43
2017-12-16T09:23:56.082Z,94574.77
2017-12-16T09:26:23.541Z,94585.09
2017-12-16T09:28:51.010Z,94577.17
2017-12-16T09:31:18.501Z,94585.78
2017-12-16T09:33:45.977Z,94588.29
2017-12-16T09:36:13.437Z,94582.69
2017-12-16T09:38:40.920Z,94592.92
2017-12-16T09:41:08.397Z,94589.46
2017-12-16T09:43:35.870Z,94598.89
2017-12-16T09:46:03.328Z,94596.19
2017-12-16T09:48:30.807Z,94588.94
2017-12-16T09:50:58.268Z,94586.05
2017-12-16T09:53:25.733Z,94587.96
2017-12-16T09:55:53.217Z,94581.67
2017-12-16T09:58:20.676Z,94590.69
2017-12-16T10:00:48.128Z,94590.69
2017-12-16T10:03:15.602Z,94593.47
2017-12-16T10:05:43.070Z,94599.06
2017-12-16T10:08:10.545Z,94603.67
2017-12-16T10:10:38.009Z,94603.62
2017-12-16T10:13:05.469Z,94595.14
2017-12-16T10:15:32.949Z,94602.79
2017-12-16T10:18:00.412Z,94599.28
2017-12-16T10:20:27.894Z,94599.57
2017-12-16T10:22:55.358Z,94614.06
2017-12-16T10:25:22.828Z,94594.66
2017-12-16T10:27:50.316Z,94605.91
2017-12-16T10:30:17.780Z,94609.27
2017-12-16T10:32:45.244Z,94616.75
2017-12-16T10:35:12.729Z,94619.26
2017-12-16T10:37:40.193Z,94621.63
2017-12-16T10:40:07.661Z,94622.66
2017-12-16T10:42:35.140Z,94629.63
2017-12-16T10:45:02.609Z,94621.03
2017-12-16T10:47:30.140Z,94623.67
2017-12-16T10:49:57.623Z,94625.63
2017-12-16T10:52:25.089Z,94627.04
2017-12-16T10:54:52.553Z,94624.66
2017-12-16T10:57:20.033Z,94629.97
2017-12-16T10:59:47.506Z,94639.02
2017-12-16T11:02:14.972Z,94638.14
2017-12-16T11:04:42.461Z,94641.98
2017-12-16T11:07:09.925Z,94646.36
2017-12-16T11:09:37.408Z,94648.91
2017-12-16T11:12:04.878Z,94653.42
2017-12-16T11:14:32.341Z,94650.34
2017-12-16T11:16:59.821Z,94650.86
2017-12-16T11:19:27.289Z,94655.20
2017-12-16T11:21:54.773Z,94652.31
2017-12-16T11:24:22.240Z,94652.39
2017-12-16T11:26:49.701Z,94659.53
2017-12-16T11:29:17.195Z,94665.89
2017-12-16T11:31:44.661Z,94667.30
2017-12-16T11:34:12.145Z,94665.00
2017-12-16T11:36:39.608Z,94670.01
2017-12-16T11:39:07.153Z,94669.88
2017-12-16T11:41:34.713Z,94671.17
2017-12-16T11:44:02.189Z,94669.17
2017-12-16T11:46:29.729Z,94675.30
2017-12-16T11:48:57.193Z,94672.09
2017-12-16T11:51:24.668Z,94674.45
2017-12-16T11:53:52.148Z,94685.36
2017-12-16T11:56:19.617Z,94681.35
2017-12-16T11:58:47.117Z,94679.53
2017-12-16T12:01:14.600Z,94685.81
2017-12-16T12:03:42.064Z,94689.77
2017-12-16T12:06:09.524Z,94682.44
2017-12-16T12:08:37.006Z,94696.47
2017-12-16T12:11:04.472Z,94706.19
2017-12-16T12:13:31.954Z,94700.27
2017-12-16T12:15:59.437Z,94691.02
2017-12-16T12:18:26.900Z,94699.43
2017-12-16T12:20:54.369Z,94696.08
2017-12-16T12:23:21.840Z,94701.67
2017-12-16T12:25:49.296Z,94704.39
2017-12-16T12:28:16.756Z,94703.09
2017-12-16T12:30:44.233Z,94706.45
2017-12-16T12:33:11.704Z,94703.93
2017-12-16T12:35:39.161Z,94708.80
2017-12-16T12:38:06.642Z,94715.91
2017-12-16T12:40:34.104Z,94725.16
2017-12-16T12:43:01.564Z,94728.84
2017-12-16T12:45:29.033Z,94721.08
2017-12-16T12:47:56.498Z,94728.66
2017-12-16T12:50:23.962Z,94729.79
2017-12-16T12:52:51.443Z,94715.61
2017-12-16T12:55:18.904Z,94723.62
2017-12-16T12:57:46.369Z,94723.77
2017-12-16T13:00:13.851Z,94733.91
2017-12-16T13:02:41.318Z,94727.37
2017-12-16T13:05:08.781Z,94729.30
2017-12-16T13:07:36.263Z,94737.13
2017-12-16T13:10:03.737Z,94738.08
2017-12-16T13:12:31.197Z,94732.33
2017-12-16T13:14:58.671Z,94744.02
2017-12-16T13:17:26.129Z,94737.62
2017-12-16T13:19:53.604Z,94751.18
2017-12-16T13:22:21.064Z,94742.19
2017-12-16T13:24:48.544Z,94746.22
2017-12-16T13:27:15.996Z,94751.50
2017-12-16T13:29:43.457Z,94748.72
2017-12-16T13:32:10.937Z,94762.79
2017-12-16T13:34:38.404Z,94764.50
2017-12-16T13:37:05.889Z,94766.73
2017-12-16T13:39:33.344Z,94765.03
2017-12-16T13:42:00.835Z,94769.98
2017-12-16T13:44:28.317Z,94769.84
2017-12-16T13:46:55.769Z,94776.39
2017-12-16T13:49:23.252Z,94780.23
2017-12-16T13:51:50.707Z,94787.41
2017-12-16T13:54:18.165Z,94790.98
2017-12-16T13:56:45.742Z,94797.17
2017-12-16T13:59:13.169Z,94810.38
2017-12-16T14:01:40.652Z,94799.70
2017-12-16T14:04:08.112Z,94811.50
2017-12-16T14:06:35.596Z,94820.77
2017-12-16T14:09:03.079Z,94817.42
2017-12-16T14:11:30.550Z,94836.19
2017-12-16T14:13:58.049Z,94835.83
2017-12-16T14:16:25.517Z,94843.68
2017-12-16T14:18:52.980Z,94851.10
2017-12-16T14:21:20.493Z,94849.02
2017-12-16T14:23:47.959Z,94852.06
2017-12-16T14:26:15.556Z,94862.06
2017-12-16T14:28:43.033Z,94865.25
2017-12-16T14:31:10.574Z,94871.23
2017-12-16T14:33:38.064Z,94878.89
2017-12-16T14:36:05.557Z,94882.05
2017-12-16T14:38:33.037Z,94888.80
2017-12-16T14:41:00.532Z,94892.79
2017-12-16T14:43:27.998Z,94901.70
2017-12-16T14:45:55.508Z,94907.48
2017-12-16T14:48:22.981Z,94920.98
2017-12-16T14:50:50.472Z,94925.85
2017-12-16T14:53:17.952Z,94928.34
2017-12-16T14:55:45.420Z,94937.89
2017-12-16T14:58:12.912Z,94932.45
2017-12-16T15:00:40.681Z,94939.36
2017-12-16T15:03:08.259Z,94941.19
2017-12-16T15:05:35.746Z,94943.75
2017-12-16T15:08:03.302Z,94951.70
2017-12-16T15:10:30.776Z,94954.01
2017-12-16T15:12:58.272Z,94954.75
2017-12-16T15:15:25.746Z,94965.26
2017-12-16T15:17:53.220Z,94965.55
2017-12-16T15:20:20.932Z,94974.14
2017-12-16T15:22:48.407Z,94984.19
2017-12-16T15:25:15.874Z,94984.25
2017-12-16T15:27:43.361Z,94990.48
2017-12-16T15:30:10.833Z,94988.30
2017-12-16T15:32:38.300Z,94997.23
2017-12-16T15:35:05.784Z,95002.69
2017-12-16T15:37:33.269Z,95004.05
2017-12-16T15:40:00.753Z,95006.41
2017-12-16T15:42:28.228Z,95016.10
2017-12-16T15:44:55.712Z,95019.41
2017-12-16T15:47:23.201Z,95019.29
2017-12-16T15:49:50.664Z,95027.39
2017-12-16T15:52:18.136Z,95027.30
2017-12-16T15:54:45.621Z,95025.40
2017-12-16T15:57:13.084Z,95032.23
2017-12-16T15:59:40.548Z,95032.30
2017-12-16T16:02:08.053Z,95033.30
2017-12-16T16:04:35.520Z,95048.09
2017-12-16T16:07:02.987Z,95051.20
2017-12-16T16:09:30.473Z,95055.80
2017-12-16T16:11:57.946Z,95064.41
2017-12-16T16:14:25.422Z,95067.80
2017-12-16T16:16:52.908Z,95076.95
2017-12-16T16:19:20.397Z,95078.69
2017-12-16T16:21:47.868Z,95078.94
2017-12-16T16:24:15.349Z,95084.41
2017-12-16T16:26:42.817Z,95086.90
2017-12-16T16:29:10.304Z,95096.50
2017-12-16T16:31:37.769Z,95100.14
2017-12-16T16:34:05.302Z,95100.54
2017-12-16T16:36:32.796Z,95112.86
2017-12-16T16:39:00.261Z,95111.11
2017-12-16T16:41:28.537Z,95114.84
2017-12-16T16:43:56.002Z,95112.80
2017-12-16T16:46:23.468Z,95121.95
2017-12-16T16:48:51.074Z,95125.26
2017-12-16T16:51:18.540Z,95132.91
2017-12-16T16:53:46.004Z,95133.61
2017-12-16T16:56:13.493Z,95129.59
2017-12-16T16:58:40.957Z,95131.61
2017-12-16T17:01:08.420Z,95147.96
2017-12-16T17:03:35.909Z,95153.20
2017-12-16T17:06:04.205Z,95164.55
2017-12-16T17:08:31.677Z,95168.60
2017-12-16T17:10:59.160Z,95173.10
2017-12-16T17:13:26.628Z,95170.66
2017-12-16T17:15:54.093Z,95177.80
2017-12-16T17:18:21.580Z,95185.61
2017-12-16T17:20:49.061Z,95185.11
2017-12-16T17:23:16.533Z,95180.31
2017-12-16T17:25:44.017Z,95187.95
2017-12-16T17:28:11.489Z,95188.75
2017-12-16T17:30:38.957Z,95191.40
2017-12-16T17:33:06.441Z,95202.33
2017-12-16T17:35:33.917Z,95200.98
2017-12-16T17:38:01.384Z,95208.34
2017-12-16T17:40:28.864Z,95212.16
2017-12-16T17:42:56.345Z,95212.88
2017-12-16T17:45:23.957Z,95213.66
2017-12-16T17:47:51.441Z,95215.59
2017-12-16T17:50:18.909Z,95220.98
2017-12-16T17:52:46.400Z,95236.80
2017-12-16T17:55:13.868Z,95230.59
2017-12-16T17:57:41.364Z,95229.66
2017-12-16T18:00:08.828Z,95232.83
2017-12-16T18:02:36.351Z,95233.59
2017-12-16T18:05:03.801Z,95241.04
2017-12-16T18:07:31.273Z,95245.63
2017-12-16T18:09:58.761Z,95245.78
2017-12-16T18:12:26.231Z,95246.98
2017-12-16T18:14:53.713Z,95253.99
2017-12-16T18:17:21.184Z,95250.15
2017-12-16T18:19:48.661Z,95254.83
2017-12-16T18:22:16.145Z,95264.39
2017-12-16T18:24:43.661Z,95265.89
2017-12-16T18:27:11.128Z,95269.20
2017-12-16T18:29:38.623Z,95263.00
2017-12-16T18:32:06.088Z,95268.39
2017-12-16T18:34:33.593Z,95270.37
2017-12-16T18:37:01.072Z,95279.95
2017-12-16T18:39:28.592Z,95278.66
2017-12-16T18:41:56.064Z,95288.04
2017-12-16T18:44:23.551Z,95286.42
2017-12-16T18:46:51.017Z,95287.36
2017-12-16T18:49:18.481Z,95291.34
2017-12-16T18:51:45.965Z,95296.34
2017-12-16T18:54:13.433Z,95296.02
2017-12-16T18:56:40.997Z,95301.48
2017-12-16T18:59:08.484Z,95303.27
2017-12-16T19:01:35.949Z,95302.23
2017-12-16T19:04:03.430Z,95312.33
2017-12-16T19:06:30.929Z,95313.98
2017-12-16T19:08:58.468Z,95326.26
2017-12-16T19:11:25.940Z,95331.44
2017-12-16T19:13:53.429Z,95326.17
2017-12-16T19:16:20.902Z,95334.02
2017-12-16T19:18:48.386Z,95333.30
2017-12-16T19:21:15.857Z,95331.83
2017-12-16T19:23:43.325Z,95333.12
2017-12-16T19:26:10.829Z,95332.76
2017-12-16T19:28:38.297Z,95340.84
2017-12-16T19:31:05.764Z,95339.55
2017-12-16T19:33:33.252Z,95344.95
2017-12-16T19:36:00.733Z,95339.02
2017-12-16T19:38:28.208Z,95345.49
2017-12-16T19:40:55.692Z,95354.43
2017-12-16T19:43:23.156Z,95352.95
2017-12-16T19:45:50.621Z,95350.27
2017-12-16T19:48:18.120Z,95356.91
2017-12-16T19:50:45.589Z,95357.67
2017-12-16T19:53:13.082Z,95360.80
2017-12-16T19:55:40.552Z,95355.03
2017-12-16T19:58:08.043Z,95363.30
2017-12-16T20:00:35.513Z,95366.59
2017-12-16T20:03:02.999Z,95374.53
2017-12-16T20:05:30.484Z,95369.66
2017-12-16T20:07:57.957Z,95373.59
2017-12-16T20:10:25.441Z,95381.84
2017-12-16T20:12:52.912Z,95379.34
2017-12-16T20:15:20.408Z,95378.90
2017-12-16T20:17:47.900Z,95388.41
2017-12-16T20:20:15.371Z,95387.27
2017-12-16T20:22:42.868Z,95391.64
2017-12-16T20:25:10.379Z,95388.89
2017-12-16T20:27:37.845Z,95391.78
2017-12-16T20:30:05.332Z,95397.34
2017-12-16T20:32:32.833Z,95392.80
2017-12-16T20:35:00.325Z,95399.09
2017-12-16T20:37:27.789Z,95397.42
2017-12-16T20:39:55.261Z,95407.07
2017-12-16T20:42:22.745Z,95409.66
2017-12-16T20:44:50.212Z,95408.84
2017-12-16T20:47:17.719Z,95411.17
2017-12-16T20:49:45.201Z,95411.50
2017-12-16T20:52:12.665Z,95407.83
2017-12-16T20:54:40.161Z,95405.42
2017-12-16T20:57:07.624Z,95404.36
2017-12-16T20:59:35.088Z,95407.83
2017-12-16T21:02:02.577Z,95407.23
2017-12-16T21:04:30.041Z,95407.09
2017-12-16T21:06:57.513Z,95410.38
2017-12-16T21:09:25.009Z,95405.51
2017-12-16T21:11:52.484Z,95406.13
2017-12-16T21:14:19.956Z,95404.07
2017-12-16T21:16:47.484Z,95406.53
2017-12-16T21:19:15.053Z,95407.25
2017-12-16T21:21:42.529Z,95411.56
2017-12-16T21:24:10.017Z,95416.64
2017-12-16T21:26:37.525Z,95425.71
2017-12-16T21:29:04.992Z,95424.02
2017-12-16T21:31:32.464Z,95417.24
2017-12-16T21:33:59.957Z,95425.05
2017-12-16T21:36:27.458Z,95422.52
2017-12-16T21:38:54.928Z,95428.37
2017-12-16T21:41:22.413Z,95429.86
2017-12-16T21:43:49.886Z,95427.76
2017-12-16T21:46:17.368Z,95428.52
2017-12-16T21:48:44.857Z,95434.31
2017-12-16T21:51:12.341Z,95443.73
2017-12-16T21:53:39.804Z,95443.05
2017-12-16T21:56:07.393Z,95448.25
2017-12-16T21:58:34.888Z,95450.39
2017-12-16T22:01:02.521Z,95453.27
2017-12-16T22:03:30.036Z,95454.03
2017-12-16T22:05:57.663Z,95458.22
2017-12-16T22:08:25.293Z,95462.00
2017-12-16T22:10:52.825Z,95459.14
2017-12-16T22:13:20.365Z,95460.03
2017-12-16T22:15:47.992Z,95464.99
2017-12-16T22:18:15.558Z,95462.81
2017-12-16T22:20:43.254Z,95470.16
2017-12-16T22:23:10.796Z,95461.41
2017-12-16T22:25:38.358Z,95463.05
2017-12-16T22:28:05.873Z,95472.24
2017-12-16T22:30:33.432Z,95472.97
2017-12-16T22:33:00.989Z,95475.23
2017-12-16T22:35:28.488Z,95480.02
2017-12-16T22:37:56.032Z,95478.73
2017-12-16T22:40:23.521Z,95475.95
2017-12-16T22:42:50.994Z,95477.20
2017-12-16T22:45:18.464Z,95480.55
2017-12-16T22:47:45.949Z,95476.31
2017-12-16T22:50:13.425Z,95474.05
2017-12-16T22:52:40.902Z,95479.05
2017-12-16T22:55:08.401Z,95470.63
2017-12-16T22:57:35.872Z,95477.96
2017-12-16T23:00:03.464Z,95477.64
2017-12-16T23:02:30.953Z,95472.45
2017-12-16T23:04:58.421Z,95477.04
2017-12-16T23:07:25.885Z,95467.61
2017-12-16T23:09:53.366Z,95481.11
2017-12-16T23:12:20.828Z,95474.09
2017-12-16T23:14:48.317Z,95476.88
2017-12-16T23:17:15.805Z,95480.54
2017-12-16T23:19:43.290Z,95481.55
2017-12-16T23:22:10.756Z,95476.15
2017-12-16T23:24:38.221Z,95479.45
2017-12-16T23:27:05.784Z,95478.12
2017-12-16T23:29:33.249Z,95483.52
2017-12-16T23:32:00.757Z,95477.12
2017-12-16T23:34:28.228Z,95482.13
2017-12-16T23:36:55.800Z,95486.27
2017-12-16T23:39:23.301Z,95481.31
2017-12-16T23:41:50.777Z,95482.88
2017-12-16T23:44:18.261Z,95485.98
2017-12-16T23:46:45.772Z,95491.88
2017-12-16T23:49:13.261Z,95490.63
2017-12-16T23:51:40.729Z,95494.48
2017-12-16T23:54:08.220Z,95487.44
2017-12-16T23:56:35.684Z,95497.27
2017-12-16T23:59:03.149Z,95498.64
